createdAt,value
2023-02-17T00:01:16.864Z,37.13
2023-02-17T00:06:20.970Z,37.43
2023-02-17T00:11:25.185Z,43.57
2023-02-17T00:16:29.916Z,40.93
2023-02-17T00:21:36.648Z,42.30
2023-02-17T00:26:39.360Z,41.80
2023-02-17T00:31:44.524Z,39.10
2023-02-17T00:36:49.022Z,33.00
2023-02-17T00:41:50.830Z,36.03
2023-02-17T00:46:52.779Z,36.80
2023-02-17T00:52:00.834Z,32.43
2023-02-17T00:57:02.572Z,34.97
2023-02-17T01:02:06.994Z,21.47
2023-02-17T01:07:11.053Z,32.37
2023-02-17T01:12:13.614Z,37.63
2023-02-17T01:17:17.552Z,35.23
2023-02-17T01:22:21.861Z,32.10
2023-02-17T01:27:25.938Z,34.43
2023-02-17T01:32:29.408Z,31.47
2023-02-17T01:37:33.890Z,33.07
2023-02-17T01:42:37.843Z,20.87
2023-02-17T01:47:44.404Z,28.43
2023-02-17T01:52:52.146Z,30.90
2023-02-17T01:57:56.648Z,26.97
2023-02-17T02:03:02.327Z,32.47
2023-02-17T02:08:04.442Z,33.07
2023-02-17T02:13:09.041Z,30.63
2023-02-17T02:18:37.338Z,32.43
2023-02-17T02:23:47.339Z,29.03
2023-02-17T02:29:10.633Z,25.47
2023-02-17T02:34:27.406Z,27.60
2023-02-17T02:39:37.261Z,31.13
2023-02-17T02:44:41.667Z,39.80
2023-02-17T02:49:45.726Z,30.63
2023-02-17T02:54:57.388Z,29.37
2023-02-17T03:00:31.290Z,38.03
2023-02-17T03:05:55.635Z,37.80
2023-02-17T03:10:57.812Z,36.70
2023-02-17T03:16:00.351Z,44.80
2023-02-17T03:21:07.114Z,35.83
2023-02-17T03:26:08.850Z,24.83
2023-02-17T03:31:10.811Z,41.77
2023-02-17T03:36:18.568Z,41.03
2023-02-17T03:41:21.293Z,44.43
2023-02-17T03:46:23.013Z,43.77
2023-02-17T03:51:25.196Z,39.70
2023-02-17T03:56:29.486Z,44.37
2023-02-17T04:01:32.283Z,39.20
2023-02-17T04:06:34.130Z,38.90
2023-02-17T04:11:37.032Z,44.57
2023-02-17T04:16:41.919Z,45.30
2023-02-17T04:21:46.811Z,42.73
2023-02-17T04:26:48.780Z,29.93
2023-02-17T04:31:50.606Z,37.60
2023-02-17T04:36:57.745Z,39.63
2023-02-17T04:41:59.442Z,30.13
2023-02-17T04:47:04.646Z,41.43
2023-02-17T04:52:09.490Z,40.00
2023-02-17T04:57:13.528Z,37.20
2023-02-17T05:02:21.538Z,38.93
2023-02-17T05:07:23.542Z,35.47
2023-02-17T05:12:27.448Z,32.77
2023-02-17T05:17:31.796Z,25.90
2023-02-17T05:22:35.888Z,27.03
2023-02-17T05:27:40.905Z,34.03
2023-02-17T05:32:42.966Z,28.00
2023-02-17T05:37:44.667Z,34.70
2023-02-17T05:42:46.369Z,33.70
2023-02-17T05:47:48.062Z,25.87
2023-02-17T05:52:49.815Z,25.00
2023-02-17T05:57:53.736Z,32.47
2023-02-17T06:02:58.705Z,35.03
2023-02-17T06:08:07.021Z,34.43
2023-02-17T06:13:09.131Z,36.80
2023-02-17T06:18:11.526Z,38.27
2023-02-17T06:23:13.249Z,26.17
2023-02-17T06:28:14.991Z,34.17
2023-02-17T06:33:18.987Z,34.60
2023-02-17T06:38:22.789Z,29.87
2023-02-17T06:43:26.834Z,22.73
2023-02-17T06:48:28.550Z,31.10
2023-02-17T06:53:32.311Z,27.70
2023-02-17T06:58:36.304Z,19.40
2023-02-17T07:03:41.001Z,21.73
2023-02-17T07:08:42.665Z,18.03
2023-02-17T07:13:49.717Z,21.47
2023-02-17T07:18:54.021Z,24.43
2023-02-17T07:24:00.706Z,21.20
2023-02-17T07:29:04.624Z,14.47
2023-02-17T07:34:06.418Z,26.37
2023-02-17T07:39:08.178Z,18.40
2023-02-17T07:44:12.067Z,20.53
2023-02-17T07:49:14.827Z,33.22
2023-02-17T07:54:21.451Z,23.83
2023-02-17T07:59:23.147Z,32.38
2023-02-17T08:04:27.146Z,22.70
2023-02-17T08:09:49.531Z,21.03
2023-02-17T08:14:54.603Z,30.80
2023-02-17T08:20:08.714Z,27.97
2023-02-17T08:25:13.249Z,36.33
2023-02-17T08:30:15.222Z,30.90
2023-02-17T08:35:22.631Z,32.33
2023-02-17T08:40:24.859Z,43.43
2023-02-17T08:45:26.697Z,45.63
2023-02-17T08:50:28.420Z,35.70
2023-02-17T08:55:35.529Z,26.03
2023-02-17T09:00:48.495Z,43.13
2023-02-17T09:05:55.547Z,40.60
2023-02-17T09:11:02.867Z,46.97
2023-02-17T09:16:08.430Z,33.60
2023-02-17T09:21:13.329Z,29.57
2023-02-17T09:26:24.910Z,31.03
2023-02-17T09:31:27.635Z,37.83
2023-02-17T09:36:32.430Z,33.30
2023-02-17T09:41:55.421Z,27.37
2023-02-17T09:47:20.577Z,26.80
2023-02-17T09:52:36.027Z,29.47
2023-02-17T09:57:53.468Z,26.07
2023-02-17T10:03:05.347Z,27.77
2023-02-17T10:08:11.437Z,21.30
2023-02-17T10:13:17.323Z,26.63
2023-02-17T10:18:32.780Z,25.90
2023-02-17T10:23:35.203Z,22.97
2023-02-17T10:28:52.498Z,16.53
2023-02-17T10:33:57.502Z,21.13
2023-02-17T10:39:11.409Z,17.67
2023-02-17T10:44:17.710Z,17.70
2023-02-17T10:49:34.816Z,11.87
2023-02-17T10:54:59.927Z,16.73
2023-02-17T11:00:11.357Z,14.53
2023-02-17T11:05:35.747Z,13.43
2023-02-17T11:10:43.575Z,15.13
2023-02-17T11:15:46.875Z,10.83
2023-02-17T11:21:00.443Z,13.45
2023-02-17T11:26:14.447Z,12.10
2023-02-17T11:31:27.635Z,11.80
2023-02-17T11:36:31.008Z,8.63
2023-02-17T11:41:42.217Z,8.70
2023-02-17T11:46:53.540Z,9.38
2023-02-17T11:52:00.628Z,8.93
2023-02-17T11:57:25.791Z,7.37
2023-02-17T12:02:46.513Z,5.22
2023-02-17T12:08:00.403Z,6.18
2023-02-17T12:13:14.497Z,4.60
2023-02-17T12:18:30.426Z,4.70
2023-02-17T12:23:41.443Z,3.23
2023-02-17T12:29:11.909Z,4.27
2023-02-17T12:34:43.730Z,4.63
2023-02-17T12:39:55.609Z,3.75
2023-02-17T12:45:04.714Z,4.30
2023-02-17T12:50:20.221Z,3.55
2023-02-17T12:55:25.507Z,3.60
2023-02-17T13:00:36.593Z,2.45
2023-02-17T13:05:44.406Z,2.63
2023-02-17T13:10:46.294Z,2.42
2023-02-17T13:15:48.403Z,2.17
2023-02-17T13:20:57.842Z,2.95
2023-02-17T13:26:19.080Z,2.67
2023-02-17T13:31:24.541Z,1.90
2023-02-17T13:36:32.792Z,1.58
2023-02-17T13:41:48.140Z,2.28
2023-02-17T13:46:54.719Z,2.58
2023-02-17T13:52:27.194Z,2.65
2023-02-17T13:57:35.277Z,2.53
2023-02-17T14:02:45.053Z,2.97
2023-02-17T14:07:47.843Z,2.17
2023-02-17T14:12:59.079Z,3.58
2023-02-17T14:18:15.189Z,2.67
2023-02-17T14:23:22.244Z,3.10
2023-02-17T14:28:27.308Z,4.68
2023-02-17T14:33:29.382Z,3.83
2023-02-17T14:38:37.383Z,4.63
2023-02-17T14:43:40.731Z,3.80
2023-02-17T14:48:45.551Z,4.80
2023-02-17T14:53:50.144Z,4.50
2023-02-17T14:58:56.054Z,3.63
2023-02-17T15:03:58.094Z,4.85
2023-02-17T15:09:01.317Z,4.00
2023-02-17T15:14:05.983Z,4.63
2023-02-17T15:19:09.637Z,4.53
2023-02-17T15:24:18.426Z,4.17
2023-02-17T15:29:23.599Z,5.13
2023-02-17T15:34:31.939Z,4.70
2023-02-17T15:39:36.805Z,3.87
2023-02-17T15:44:45.936Z,3.23
2023-02-17T15:49:50.306Z,4.60
2023-02-17T15:54:53.960Z,5.20
2023-02-17T15:59:58.150Z,5.03
2023-02-17T16:05:00.738Z,5.40
2023-02-17T16:10:08.600Z,5.17
2023-02-17T16:15:22.756Z,4.97
2023-02-17T16:20:29.425Z,5.20
2023-02-17T16:25:32.028Z,3.73
2023-02-17T16:30:39.626Z,4.80
2023-02-17T16:35:43.533Z,6.63
2023-02-17T16:40:50.499Z,4.30
2023-02-17T16:45:57.401Z,9.30
2023-02-17T16:51:06.675Z,3.23
2023-02-17T16:56:18.686Z,5.00
2023-02-17T17:01:22.919Z,5.20
2023-02-17T17:06:32.367Z,5.90
2023-02-17T17:11:39.735Z,5.20
2023-02-17T17:16:44.211Z,5.13
2023-02-17T17:21:47.075Z,6.13
2023-02-17T17:26:52.091Z,4.87
2023-02-17T17:31:55.422Z,5.17
2023-02-17T17:37:05.694Z,4.47
2023-02-17T17:42:08.072Z,10.23
2023-02-17T17:47:29.989Z,5.43
2023-02-17T17:52:34.780Z,5.13
2023-02-17T17:57:36.603Z,2.90
2023-02-17T18:02:39.473Z,6.77
2023-02-17T18:07:43.316Z,5.37
2023-02-17T18:12:45.731Z,5.53
2023-02-17T18:17:48.219Z,4.33
2023-02-17T18:22:50.486Z,5.03
2023-02-17T18:27:52.796Z,5.50
2023-02-17T18:32:55.344Z,5.50
2023-02-17T18:37:57.570Z,5.43
2023-02-17T18:43:02.814Z,4.00
2023-02-17T18:48:08.644Z,4.77
2023-02-17T18:53:13.467Z,5.97
2023-02-17T18:58:15.346Z,6.33
2023-02-17T19:03:19.909Z,5.77
2023-02-17T19:08:22.733Z,7.93
2023-02-17T19:13:28.293Z,18.50
2023-02-17T19:18:30.777Z,11.37
2023-02-17T19:23:33.004Z,11.43
2023-02-17T19:28:38.585Z,5.17
2023-02-17T19:33:45.790Z,3.87
2023-02-17T19:38:48.873Z,5.27
2023-02-17T19:43:53.670Z,5.53
2023-02-17T19:48:57.604Z,3.07
2023-02-17T19:54:00.597Z,4.90
2023-02-17T19:59:03.715Z,5.73
2023-02-17T20:04:08.767Z,5.43
2023-02-17T20:09:17.691Z,6.07
2023-02-17T20:14:20.507Z,5.40
2023-02-17T20:19:25.147Z,4.47
2023-02-17T20:24:30.353Z,5.33
2023-02-17T20:29:32.267Z,5.03
2023-02-17T20:34:38.693Z,4.53
2023-02-17T20:39:42.152Z,4.67
2023-02-17T20:44:50.220Z,5.03
2023-02-17T20:49:52.178Z,3.63
2023-02-17T20:54:54.982Z,5.33
2023-02-17T20:59:57.026Z,4.27
2023-02-17T21:04:59.047Z,4.43
2023-02-17T21:10:02.372Z,4.40
2023-02-17T21:15:06.685Z,5.33
2023-02-17T21:20:10.432Z,5.57
2023-02-17T21:25:15.285Z,4.90
2023-02-17T21:30:18.790Z,3.40
2023-02-17T21:35:25.407Z,4.47
2023-02-17T21:40:27.200Z,3.80
2023-02-17T21:45:29.102Z,5.90
2023-02-17T21:50:35.401Z,4.63
2023-02-17T21:55:39.589Z,4.37
2023-02-17T22:00:54.167Z,4.80
2023-02-17T22:05:58.305Z,5.03
2023-02-17T22:11:00.096Z,4.30
2023-02-17T22:16:02.231Z,5.17
2023-02-17T22:21:13.775Z,4.07
2023-02-17T22:26:19.416Z,3.60
2023-02-17T22:31:23.515Z,4.90
2023-02-17T22:36:27.456Z,5.30
2023-02-17T22:41:33.741Z,4.90
2023-02-17T22:46:37.975Z,3.93
2023-02-17T22:51:45.149Z,4.37
2023-02-17T22:56:46.860Z,4.73
2023-02-17T23:01:53.568Z,3.67
2023-02-17T23:06:59.326Z,5.03
2023-02-17T23:12:05.746Z,4.40
2023-02-17T23:17:12.363Z,4.67
2023-02-17T23:22:16.783Z,4.73
2023-02-17T23:27:18.684Z,4.50
2023-02-17T23:32:20.450Z,4.47
2023-02-17T23:37:27.488Z,3.80
2023-02-17T23:42:31.408Z,3.63
2023-02-17T23:47:36.489Z,4.43
2023-02-17T23:52:42.048Z,5.20
2023-02-17T23:57:44.107Z,4.27
